sensor_id;sensor_type;location;lat;lon;timestamp;pressure;altitude;pressure_sealevel;temperature;humidity
65897;BME280;52677;50.898;10.854;2023-04-19T00:01:19;99425.56;;;6.82;100.00
65897;BME280;52677;50.898;10.854;2023-04-19T00:03:20;99425.09;;;6.80;100.00
65897;BME280;52677;50.898;10.854;2023-04-19T00:05:23;99425.09;;;6.80;100.00
65897;BME280;52677;50.898;10.854;2023-04-19T00:07:23;99422.00;;;6.82;100.00
65897;BME280;52677;50.898;10.854;2023-04-19T00:09:24;99424.44;;;6.74;100.00
65897;BME280;52677;50.898;10.854;2023-04-19T00:11:24;99416.66;;;6.76;100.00
65897;BME280;52677;50.898;10.854;2023-04-19T00:13:25;99423.19;;;6.72;100.00
65897;BME280;52677;50.898;10.854;2023-04-19T00:15:25;99421.06;;;6.69;100.00
65897;BME280;52677;50.898;10.854;2023-04-19T00:17:25;99417.38;;;6.65;100.00
65897;BME280;52677;50.898;10.854;2023-04-19T00:19:26;99410.75;;;6.66;100.00
65897;BME280;52677;50.898;10.854;2023-04-19T00:21:26;99411.25;;;6.59;100.00
65897;BME280;52677;50.898;10.854;2023-04-19T00:23:27;99419.16;;;6.61;100.00
65897;BME280;52677;50.898;10.854;2023-04-19T00:25:27;99416.41;;;6.61;100.00
65897;BME280;52677;50.898;10.854;2023-04-19T00:27:29;99402.69;;;6.52;100.00
65897;BME280;52677;50.898;10.854;2023-04-19T00:29:30;99409.50;;;6.55;100.00
65897;BME280;52677;50.898;10.854;2023-04-19T00:31:30;99400.44;;;6.54;100.00
65897;BME280;52677;50.898;10.854;2023-04-19T00:33:31;99400.91;;;6.56;100.00
65897;BME280;52677;50.898;10.854;2023-04-19T00:35:32;99404.16;;;6.50;100.00
65897;BME280;52677;50.898;10.854;2023-04-19T00:37:32;99404.00;;;6.55;100.00
65897;BME280;52677;50.898;10.854;2023-04-19T00:39:32;99404.97;;;6.50;100.00
65897;BME280;52677;50.898;10.854;2023-04-19T00:41:33;99401.88;;;6.52;100.00
65897;BME280;52677;50.898;10.854;2023-04-19T00:43:33;99404.50;;;6.48;100.00
65897;BME280;52677;50.898;10.854;2023-04-19T00:45:34;99404.31;;;6.44;100.00
65897;BME280;52677;50.898;10.854;2023-04-19T00:47:36;99400.13;;;6.47;100.00
65897;BME280;52677;50.898;10.854;2023-04-19T00:49:37;99394.34;;;6.40;100.00
65897;BME280;52677;50.898;10.854;2023-04-19T00:51:37;99411.16;;;6.38;100.00
65897;BME280;52677;50.898;10.854;2023-04-19T00:53:39;99407.88;;;6.45;100.00
65897;BME280;52677;50.898;10.854;2023-04-19T00:55:39;99395.13;;;6.40;100.00
65897;BME280;52677;50.898;10.854;2023-04-19T00:57:40;99389.47;;;6.45;100.00
65897;BME280;52677;50.898;10.854;2023-04-19T00:59:40;99396.75;;;6.41;100.00
65897;BME280;52677;50.898;10.854;2023-04-19T01:01:41;99399.81;;;6.40;100.00
65897;BME280;52677;50.898;10.854;2023-04-19T01:03:42;99403.06;;;6.42;100.00
65897;BME280;52677;50.898;10.854;2023-04-19T01:05:42;99397.72;;;6.37;100.00
65897;BME280;52677;50.898;10.854;2023-04-19T01:07:42;99401.59;;;6.36;100.00
65897;BME280;52677;50.898;10.854;2023-04-19T01:09:43;99403.06;;;6.33;100.00
65897;BME280;52677;50.898;10.854;2023-04-19T01:11:44;99396.31;;;6.31;100.00
65897;BME280;52677;50.898;10.854;2023-04-19T01:13:44;99393.03;;;6.29;100.00
65897;BME280;52677;50.898;10.854;2023-04-19T01:15:45;99392.56;;;6.27;100.00
65897;BME280;52677;50.898;10.854;2023-04-19T01:17:45;99388.69;;;6.28;100.00
65897;BME280;52677;50.898;10.854;2023-04-19T01:19:45;99392.09;;;6.25;100.00
65897;BME280;52677;50.898;10.854;2023-04-19T01:21:46;99392.44;;;6.23;100.00
65897;BME280;52677;50.898;10.854;2023-04-19T01:23:46;99389.69;;;6.23;100.00
65897;BME280;52677;50.898;10.854;2023-04-19T01:25:47;99386.47;;;6.21;100.00
65897;BME280;52677;50.898;10.854;2023-04-19T01:27:47;99387.28;;;6.22;100.00
65897;BME280;52677;50.898;10.854;2023-04-19T01:29:47;99379.34;;;6.20;100.00
65897;BME280;52677;50.898;10.854;2023-04-19T01:31:48;99390.66;;;6.18;100.00
65897;BME280;52677;50.898;10.854;2023-04-19T01:33:52;99388.25;;;6.17;100.00
65897;BME280;52677;50.898;10.854;2023-04-19T01:35:52;99386.28;;;6.17;100.00
65897;BME280;52677;50.898;10.854;2023-04-19T01:37:53;99385.81;;;6.15;100.00
65897;BME280;52677;50.898;10.854;2023-04-19T01:39:55;99391.00;;;6.17;100.00
65897;BME280;52677;50.898;10.854;2023-04-19T01:41:55;99381.13;;;6.16;100.00
65897;BME280;52677;50.898;10.854;2023-04-19T01:43:55;99388.91;;;6.14;100.00
65897;BME280;52677;50.898;10.854;2023-04-19T01:45:56;99399.91;;;6.14;100.00
65897;BME280;52677;50.898;10.854;2023-04-19T01:47:56;99386.66;;;6.07;100.00
65897;BME280;52677;50.898;10.854;2023-04-19T01:49:58;99388.25;;;6.08;100.00
65897;BME280;52677;50.898;10.854;2023-04-19T01:51:58;99386.19;;;6.05;100.00
65897;BME280;52677;50.898;10.854;2023-04-19T01:53:58;99397.66;;;5.99;100.00
65897;BME280;52677;50.898;10.854;2023-04-19T01:55:59;99394.56;;;6.00;100.00
65897;BME280;52677;50.898;10.854;2023-04-19T01:57:59;99389.75;;;5.97;100.00
65897;BME280;52677;50.898;10.854;2023-04-19T02:00:00;99389.75;;;5.97;100.00
65897;BME280;52677;50.898;10.854;2023-04-19T02:02:01;99383.09;;;5.98;100.00
65897;BME280;52677;50.898;10.854;2023-04-19T02:04:02;99384.25;;;5.97;100.00
65897;BME280;52677;50.898;10.854;2023-04-19T02:06:02;99387.97;;;5.93;100.00
65897;BME280;52677;50.898;10.854;2023-04-19T02:08:03;99385.84;;;5.89;100.00
65897;BME280;52677;50.898;10.854;2023-04-19T02:10:04;99385.34;;;5.87;100.00
65897;BME280;52677;50.898;10.854;2023-04-19T02:12:05;99376.78;;;5.89;100.00
65897;BME280;52677;50.898;10.854;2023-04-19T02:14:05;99386.00;;;5.84;100.00
65897;BME280;52677;50.898;10.854;2023-04-19T02:16:06;99374.88;;;5.81;100.00
65897;BME280;52677;50.898;10.854;2023-04-19T02:18:07;99377.94;;;5.79;100.00
65897;BME280;52677;50.898;10.854;2023-04-19T02:20:07;99373.72;;;5.82;100.00
65897;BME280;52677;50.898;10.854;2023-04-19T02:22:08;99376.28;;;5.78;100.00
65897;BME280;52677;50.898;10.854;2023-04-19T02:24:08;99377.44;;;5.77;100.00
65897;BME280;52677;50.898;10.854;2023-04-19T02:26:08;99377.75;;;5.76;100.00
65897;BME280;52677;50.898;10.854;2023-04-19T02:28:09;99376.00;;;5.71;100.00
65897;BME280;52677;50.898;10.854;2023-04-19T02:30:10;99379.56;;;5.72;100.00
65897;BME280;52677;50.898;10.854;2023-04-19T02:32:13;99369.88;;;5.66;100.00
65897;BME280;52677;50.898;10.854;2023-04-19T02:34:13;99375.19;;;5.62;100.00
65897;BME280;52677;50.898;10.854;2023-04-19T02:36:14;99371.63;;;5.61;100.00
65897;BME280;52677;50.898;10.854;2023-04-19T02:38:14;99372.44;;;5.62;100.00
65897;BME280;52677;50.898;10.854;2023-04-19T02:40:14;99380.66;;;5.62;100.00
65897;BME280;52677;50.898;10.854;2023-04-19T02:42:15;99383.25;;;5.58;100.00
65897;BME280;52677;50.898;10.854;2023-04-19T02:44:15;99380.38;;;5.63;100.00
65897;BME280;52677;50.898;10.854;2023-04-19T02:46:16;99378.56;;;5.59;100.00
65897;BME280;52677;50.898;10.854;2023-04-19T02:48:16;99381.47;;;5.54;100.00
65897;BME280;52677;50.898;10.854;2023-04-19T02:50:16;99383.59;;;5.57;100.00
65897;BME280;52677;50.898;10.854;2023-04-19T02:52:17;99381.31;;;5.59;100.00
65897;BME280;52677;50.898;10.854;2023-04-19T02:54:17;99377.44;;;5.51;100.00
65897;BME280;52677;50.898;10.854;2023-04-19T02:56:17;99378.09;;;5.48;100.00
65897;BME280;52677;50.898;10.854;2023-04-19T02:58:18;99377.13;;;5.44;100.00
65897;BME280;52677;50.898;10.854;2023-04-19T03:00:18;99379.06;;;5.44;100.00
65897;BME280;52677;50.898;10.854;2023-04-19T03:02:18;99373.09;;;5.42;100.00
65897;BME280;52677;50.898;10.854;2023-04-19T03:04:19;99377.28;;;5.39;100.00
65897;BME280;52677;50.898;10.854;2023-04-19T03:06:19;99372.75;;;5.34;100.00
65897;BME280;52677;50.898;10.854;2023-04-19T03:08:19;99368.41;;;5.33;100.00
65897;BME280;52677;50.898;10.854;2023-04-19T03:10:20;99367.41;;;5.29;100.00
65897;BME280;52677;50.898;10.854;2023-04-19T03:12:20;99370.16;;;5.29;100.00
65897;BME280;52677;50.898;10.854;2023-04-19T03:14:20;99358.69;;;5.27;100.00
65897;BME280;52677;50.898;10.854;2023-04-19T03:16:21;99365.50;;;5.21;100.00
65897;BME280;52677;50.898;10.854;2023-04-19T03:18:21;99368.53;;;5.20;100.00
65897;BME280;52677;50.898;10.854;2023-04-19T03:20:21;99370.66;;;5.14;100.00
65897;BME280;52677;50.898;10.854;2023-04-19T03:22:22;99363.03;;;5.11;100.00
65897;BME280;52677;50.898;10.854;2023-04-19T03:24:29;99366.28;;;5.13;100.00
65897;BME280;52677;50.898;10.854;2023-04-19T03:26:29;99357.22;;;5.13;100.00
65897;BME280;52677;50.898;10.854;2023-04-19T03:28:30;99361.44;;;5.10;100.00
65897;BME280;52677;50.898;10.854;2023-04-19T03:30:30;99354.16;;;5.05;100.00
65897;BME280;52677;50.898;10.854;2023-04-19T03:32:31;99360.28;;;5.02;100.00
65897;BME280;52677;50.898;10.854;2023-04-19T03:34:31;99364.16;;;5.01;100.00
65897;BME280;52677;50.898;10.854;2023-04-19T03:36:31;99358.81;;;4.96;100.00
65897;BME280;52677;50.898;10.854;2023-04-19T03:38:32;99364.63;;;4.95;100.00
65897;BME280;52677;50.898;10.854;2023-04-19T03:40:32;99360.91;;;4.91;100.00
65897;BME280;52677;50.898;10.854;2023-04-19T03:42:33;99366.03;;;4.84;100.00
65897;BME280;52677;50.898;10.854;2023-04-19T03:44:33;99360.41;;;4.80;100.00
65897;BME280;52677;50.898;10.854;2023-04-19T03:46:33;99369.91;;;4.74;100.00
65897;BME280;52677;50.898;10.854;2023-04-19T03:48:34;99369.69;;;4.70;100.00
65897;BME280;52677;50.898;10.854;2023-04-19T03:50:34;99373.13;;;4.76;100.00
65897;BME280;52677;50.898;10.854;2023-04-19T03:52:35;99369.91;;;4.74;100.00
65897;BME280;52677;50.898;10.854;2023-04-19T03:54:35;99362.78;;;4.64;100.00
65897;BME280;52677;50.898;10.854;2023-04-19T03:56:35;99375.34;;;4.65;100.00
65897;BME280;52677;50.898;10.854;2023-04-19T03:58:36;99369.19;;;4.60;100.00
65897;BME280;52677;50.898;10.854;2023-04-19T04:00:36;99369.19;;;4.60;100.00
65897;BME280;52677;50.898;10.854;2023-04-19T04:02:37;99380.16;;;4.60;100.00
65897;BME280;52677;50.898;10.854;2023-04-19T04:04:37;99374.47;;;4.47;100.00
65897;BME280;52677;50.898;10.854;2023-04-19T04:06:38;99368.00;;;4.43;100.00
65897;BME280;52677;50.898;10.854;2023-04-19T04:08:38;99372.78;;;4.38;100.00
65897;BME280;52677;50.898;10.854;2023-04-19T04:10:38;99370.22;;;4.33;100.00
65897;BME280;52677;50.898;10.854;2023-04-19T04:12:39;99374.38;;;4.30;100.00
65897;BME280;52677;50.898;10.854;2023-04-19T04:14:39;99384.84;;;4.28;100.00
65897;BME280;52677;50.898;10.854;2023-04-19T04:16:40;99381.44;;;4.22;100.00
65897;BME280;52677;50.898;10.854;2023-04-19T04:18:40;99374.47;;;4.16;100.00
65897;BME280;52677;50.898;10.854;2023-04-19T04:20:42;99370.13;;;4.15;100.00
65897;BME280;52677;50.898;10.854;2023-04-19T04:22:43;99377.16;;;4.08;100.00
65897;BME280;52677;50.898;10.854;2023-04-19T04:24:45;99380.81;;;4.03;100.00
65897;BME280;52677;50.898;10.854;2023-04-19T04:26:47;99376.25;;;3.90;100.00
65897;BME280;52677;50.898;10.854;2023-04-19T04:28:48;99377.50;;;3.84;100.00
65897;BME280;52677;50.898;10.854;2023-04-19T04:30:49;99375.50;;;3.76;100.00
65897;BME280;52677;50.898;10.854;2023-04-19T04:32:50;99387.75;;;3.78;100.00
65897;BME280;52677;50.898;10.854;2023-04-19T04:34:51;99389.06;;;3.81;100.00
65897;BME280;52677;50.898;10.854;2023-04-19T04:36:51;99388.56;;;3.79;100.00
65897;BME280;52677;50.898;10.854;2023-04-19T04:38:52;99383.88;;;3.79;100.00
65897;BME280;52677;50.898;10.854;2023-04-19T04:40:53;99373.75;;;3.80;100.00
65897;BME280;52677;50.898;10.854;2023-04-19T04:42:54;99380.53;;;3.82;100.00
65897;BME280;52677;50.898;10.854;2023-04-19T04:44:54;99383.28;;;3.82;100.00
65897;BME280;52677;50.898;10.854;2023-04-19T04:46:56;99372.72;;;3.89;100.00
65897;BME280;52677;50.898;10.854;2023-04-19T04:48:57;99387.31;;;3.85;100.00
65897;BME280;52677;50.898;10.854;2023-04-19T04:50:57;99382.66;;;3.85;100.00
65897;BME280;52677;50.898;10.854;2023-04-19T04:52:57;99380.53;;;3.82;100.00
65897;BME280;52677;50.898;10.854;2023-04-19T04:54:58;99389.38;;;3.79;100.00
65897;BME280;52677;50.898;10.854;2023-04-19T04:56:58;99394.41;;;3.86;100.00
65897;BME280;52677;50.898;10.854;2023-04-19T04:58:58;99388.13;;;3.85;100.00
65897;BME280;52677;50.898;10.854;2023-04-19T05:00:59;99392.00;;;3.84;100.00
65897;BME280;52677;50.898;10.854;2023-04-19T05:02:59;99377.38;;;3.89;100.00
65897;BME280;52677;50.898;10.854;2023-04-19T05:05:01;99385.69;;;3.84;100.00
65897;BME280;52677;50.898;10.854;2023-04-19T05:07:02;99381.78;;;3.76;100.00
65897;BME280;52677;50.898;10.854;2023-04-19T05:09:02;99375.19;;;3.77;100.00
65897;BME280;52677;50.898;10.854;2023-04-19T05:11:03;99379.84;;;3.77;100.00
65897;BME280;52677;50.898;10.854;2023-04-19T05:13:03;99376.31;;;3.76;100.00
65897;BME280;52677;50.898;10.854;2023-04-19T05:15:03;99375.28;;;3.72;100.00
65897;BME280;52677;50.898;10.854;2023-04-19T05:17:04;99378.66;;;3.69;100.00
65897;BME280;52677;50.898;10.854;2023-04-19T05:19:04;99378.88;;;3.73;100.00
65897;BME280;52677;50.898;10.854;2023-04-19T05:21:05;99376.63;;;3.75;100.00
65897;BME280;52677;50.898;10.854;2023-04-19T05:23:07;99369.22;;;3.75;100.00
65897;BME280;52677;50.898;10.854;2023-04-19T05:25:10;99372.13;;;3.79;100.00
65897;BME280;52677;50.898;10.854;2023-04-19T05:27:10;99369.22;;;3.75;100.00
65897;BME280;52677;50.898;10.854;2023-04-19T05:29:11;99369.72;;;3.77;100.00
65897;BME280;52677;50.898;10.854;2023-04-19T05:31:11;99362.56;;;3.67;100.00
65897;BME280;52677;50.898;10.854;2023-04-19T05:33:11;99366.97;;;3.77;100.00
65897;BME280;52677;50.898;10.854;2023-04-19T05:35:12;99367.91;;;3.73;100.00
65897;BME280;52677;50.898;10.854;2023-04-19T05:37:12;99365.69;;;3.75;100.00
65897;BME280;52677;50.898;10.854;2023-04-19T05:39:12;99353.28;;;3.77;100.00
65897;BME280;52677;50.898;10.854;2023-04-19T05:41:14;99357.94;;;3.77;100.00
65897;BME280;52677;50.898;10.854;2023-04-19T05:43:14;99356.97;;;3.73;100.00
65897;BME280;52677;50.898;10.854;2023-04-19T05:45:15;99370.94;;;3.71;100.00
65897;BME280;52677;50.898;10.854;2023-04-19T05:47:15;99373.41;;;3.73;100.00
65897;BME280;52677;50.898;10.854;2023-04-19T05:49:16;99371.16;;;3.75;100.00
65897;BME280;52677;50.898;10.854;2023-04-19T05:51:17;99364.16;;;3.69;100.00
65897;BME280;52677;50.898;10.854;2023-04-19T05:53:18;99374.94;;;3.65;100.00
65897;BME280;52677;50.898;10.854;2023-04-19T05:55:18;99370.06;;;3.62;100.00
65897;BME280;52677;50.898;10.854;2023-04-19T05:57:18;99364.59;;;3.62;100.00
65897;BME280;52677;50.898;10.854;2023-04-19T05:59:18;99371.81;;;3.58;100.00
65897;BME280;52677;50.898;10.854;2023-04-19T06:01:19;99376.97;;;3.59;100.00
65897;BME280;52677;50.898;10.854;2023-04-19T06:03:19;99365.03;;;3.55;100.00
65897;BME280;52677;50.898;10.854;2023-04-19T06:05:20;99369.75;;;3.63;100.00
65897;BME280;52677;50.898;10.854;2023-04-19T06:07:21;99362.34;;;3.64;100.00
65897;BME280;52677;50.898;10.854;2023-04-19T06:09:21;99367.53;;;3.65;100.00
65897;BME280;52677;50.898;10.854;2023-04-19T06:11:21;99373.03;;;3.65;100.00
65897;BME280;52677;50.898;10.854;2023-04-19T06:13:22;99368.41;;;3.75;100.00
65897;BME280;52677;50.898;10.854;2023-04-19T06:15:22;99373.88;;;3.75;100.00
65897;BME280;52677;50.898;10.854;2023-04-19T06:17:25;99370.88;;;3.62;100.00
65897;BME280;52677;50.898;10.854;2023-04-19T06:19:25;99370.88;;;3.62;100.00
65897;BME280;52677;50.898;10.854;2023-04-19T06:21:29;99373.13;;;3.60;100.00
65897;BME280;52677;50.898;10.854;2023-04-19T06:23:30;99377.31;;;3.58;100.00
65897;BME280;52677;50.898;10.854;2023-04-19T06:25:31;99380.16;;;3.53;100.00
65897;BME280;52677;50.898;10.854;2023-04-19T06:27:31;99373.06;;;3.52;100.00
65897;BME280;52677;50.898;10.854;2023-04-19T06:29:31;99367.97;;;3.59;100.00
65897;BME280;52677;50.898;10.854;2023-04-19T06:31:32;99378.59;;;3.60;100.00
65897;BME280;52677;50.898;10.854;2023-04-19T06:33:32;99373.63;;;3.62;100.00
65897;BME280;52677;50.898;10.854;2023-04-19T06:35:33;99369.97;;;3.67;100.00
65897;BME280;52677;50.898;10.854;2023-04-19T06:37:33;99374.81;;;3.70;100.00
65897;BME280;52677;50.898;10.854;2023-04-19T06:39:33;99369.97;;;3.67;100.00
65897;BME280;52677;50.898;10.854;2023-04-19T06:41:34;99370.84;;;3.76;100.00
65897;BME280;52677;50.898;10.854;2023-04-19T06:43:34;99371.97;;;3.75;100.00
65897;BME280;52677;50.898;10.854;2023-04-19T06:45:35;99367.91;;;3.73;100.00
65897;BME280;52677;50.898;10.854;2023-04-19T06:47:35;99364.88;;;3.74;100.00
65897;BME280;52677;50.898;10.854;2023-04-19T06:49:35;99372.28;;;3.74;100.00
65897;BME280;52677;50.898;10.854;2023-04-19T06:51:37;99367.72;;;3.69;100.00
65897;BME280;52677;50.898;10.854;2023-04-19T06:53:38;99369.72;;;3.77;100.00
65897;BME280;52677;50.898;10.854;2023-04-19T06:55:38;99363.31;;;3.82;100.00
65897;BME280;52677;50.898;10.854;2023-04-19T06:57:39;99361.56;;;3.86;100.00
65897;BME280;52677;50.898;10.854;2023-04-19T06:59:39;99360.63;;;3.90;100.00
65897;BME280;52677;50.898;10.854;2023-04-19T07:01:40;99361.94;;;3.93;100.00
65897;BME280;52677;50.898;10.854;2023-04-19T07:03:40;99366.47;;;3.98;100.00
65897;BME280;52677;50.898;10.854;2023-04-19T07:05:40;99369.88;;;4.03;100.00
65897;BME280;52677;50.898;10.854;2023-04-19T07:07:41;99367.47;;;4.02;100.00
65897;BME280;52677;50.898;10.854;2023-04-19T07:09:41;99367.78;;;4.00;100.00
65897;BME280;52677;50.898;10.854;2023-04-19T07:11:41;99360.25;;;4.06;100.00
65897;BME280;52677;50.898;10.854;2023-04-19T07:13:45;99361.66;;;4.03;100.00
65897;BME280;52677;50.898;10.854;2023-04-19T07:15:45;99357.41;;;4.19;100.00
65897;BME280;52677;50.898;10.854;2023-04-19T07:17:45;99367.44;;;4.24;100.00
65897;BME280;52677;50.898;10.854;2023-04-19T07:19:46;99365.66;;;4.28;100.00
65897;BME280;52677;50.898;10.854;2023-04-19T07:21:48;99372.94;;;4.33;100.00
65897;BME280;52677;50.898;10.854;2023-04-19T07:23:48;99372.19;;;4.41;100.00
65897;BME280;52677;50.898;10.854;2023-04-19T07:25:49;99363.69;;;4.51;100.00
65897;BME280;52677;50.898;10.854;2023-04-19T07:27:51;99368.84;;;4.53;100.00
65897;BME280;52677;50.898;10.854;2023-04-19T07:29:52;99366.94;;;4.62;100.00
65897;BME280;52677;50.898;10.854;2023-04-19T07:31:52;99354.72;;;4.68;99.85
65897;BME280;52677;50.898;10.854;2023-04-19T07:33:54;99356.31;;;4.69;99.17
65897;BME280;52677;50.898;10.854;2023-04-19T07:35:54;99355.06;;;4.75;100.00
65897;BME280;52677;50.898;10.854;2023-04-19T07:37:55;99356.56;;;4.90;98.54
65897;BME280;52677;50.898;10.854;2023-04-19T07:39:55;99346.84;;;4.84;100.00
65897;BME280;52677;50.898;10.854;2023-04-19T07:41:56;99357.34;;;4.90;100.00
65897;BME280;52677;50.898;10.854;2023-04-19T07:43:57;99361.22;;;4.81;98.65
65897;BME280;52677;50.898;10.854;2023-04-19T07:45:57;99364.75;;;4.81;98.18
65897;BME280;52677;50.898;10.854;2023-04-19T07:47:57;99363.63;;;4.82;97.72
65897;BME280;52677;50.898;10.854;2023-04-19T07:49:58;99355.53;;;4.77;98.02
65897;BME280;52677;50.898;10.854;2023-04-19T07:52:01;99352.81;;;4.77;99.62
65897;BME280;52677;50.898;10.854;2023-04-19T07:54:02;99346.88;;;4.92;98.75
65897;BME280;52677;50.898;10.854;2023-04-19T07:56:02;99345.59;;;4.98;98.41
65897;BME280;52677;50.898;10.854;2023-04-19T07:58:03;99349.28;;;4.94;96.61
65897;BME280;52677;50.898;10.854;2023-04-19T08:00:03;99339.00;;;4.99;96.21
65897;BME280;52677;50.898;10.854;2023-04-19T08:02:04;99345.28;;;5.08;99.33
65897;BME280;52677;50.898;10.854;2023-04-19T08:04:04;99338.69;;;5.18;96.91
65897;BME280;52677;50.898;10.854;2023-04-19T08:06:05;99341.91;;;5.20;94.58
65897;BME280;52677;50.898;10.854;2023-04-19T08:08:09;99341.59;;;5.22;93.71
65897;BME280;52677;50.898;10.854;2023-04-19T08:10:10;99338.34;;;5.20;94.51
65897;BME280;52677;50.898;10.854;2023-04-19T08:12:10;99332.88;;;5.28;95.61
65897;BME280;52677;50.898;10.854;2023-04-19T08:14:10;99322.41;;;5.39;95.18
65897;BME280;52677;50.898;10.854;2023-04-19T08:16:11;99328.03;;;5.51;95.56
65897;BME280;52677;50.898;10.854;2023-04-19T08:18:11;99325.75;;;5.71;95.16
65897;BME280;52677;50.898;10.854;2023-04-19T08:20:12;99334.66;;;5.68;89.50
65897;BME280;52677;50.898;10.854;2023-04-19T08:22:12;99336.72;;;5.71;89.25
65897;BME280;52677;50.898;10.854;2023-04-19T08:24:12;99333.69;;;5.55;87.68
65897;BME280;52677;50.898;10.854;2023-04-19T08:26:13;99329.97;;;5.42;88.25
65897;BME280;52677;50.898;10.854;2023-04-19T08:28:13;99338.53;;;5.49;90.75
65897;BME280;52677;50.898;10.854;2023-04-19T08:30:13;99337.72;;;5.49;90.68
65897;BME280;52677;50.898;10.854;2023-04-19T08:32:15;99344.97;;;5.53;91.49
65897;BME280;52677;50.898;10.854;2023-04-19T08:34:15;99335.94;;;5.53;91.61
65897;BME280;52677;50.898;10.854;2023-04-19T08:36:15;99327.56;;;5.49;89.35
65897;BME280;52677;50.898;10.854;2023-04-19T08:38:16;99335.63;;;5.54;87.14
65897;BME280;52677;50.898;10.854;2023-04-19T08:40:16;99329.63;;;5.61;85.71
65897;BME280;52677;50.898;10.854;2023-04-19T08:42:17;99334.16;;;5.66;85.58
65897;BME280;52677;50.898;10.854;2023-04-19T08:44:18;99318.00;;;5.73;85.08
65897;BME280;52677;50.898;10.854;2023-04-19T08:46:20;99314.63;;;5.58;83.78
65897;BME280;52677;50.898;10.854;2023-04-19T08:48:23;99317.50;;;5.71;84.91
65897;BME280;52677;50.898;10.854;2023-04-19T08:50:24;99305.56;;;5.75;87.77
65897;BME280;52677;50.898;10.854;2023-04-19T08:52:26;99309.75;;;5.81;85.76
65897;BME280;52677;50.898;10.854;2023-04-19T08:54:28;99311.19;;;5.79;88.33
65897;BME280;52677;50.898;10.854;2023-04-19T08:56:29;99301.19;;;5.83;85.79
65897;BME280;52677;50.898;10.854;2023-04-19T08:58:30;99308.28;;;6.01;86.66
65897;BME280;52677;50.898;10.854;2023-04-19T09:00:32;99302.25;;;6.16;85.57
65897;BME280;52677;50.898;10.854;2023-04-19T09:02:47;99296.91;;;6.20;83.45
65897;BME280;52677;50.898;10.854;2023-04-19T09:04:47;99296.25;;;6.23;84.55
65897;BME280;52677;50.898;10.854;2023-04-19T09:06:47;99292.47;;;6.36;83.65
65897;BME280;52677;50.898;10.854;2023-04-19T09:08:48;99283.91;;;6.38;81.62
65897;BME280;52677;50.898;10.854;2023-04-19T09:10:58;99298.13;;;6.40;84.04
65897;BME280;52677;50.898;10.854;2023-04-19T09:13:03;99284.47;;;6.52;86.94
65897;BME280;52677;50.898;10.854;2023-04-19T09:15:06;99291.72;;;6.57;82.43
65897;BME280;52677;50.898;10.854;2023-04-19T09:17:15;99280.34;;;6.67;83.49
65897;BME280;52677;50.898;10.854;2023-04-19T09:19:15;99290.38;;;6.71;84.25
65897;BME280;52677;50.898;10.854;2023-04-19T09:21:36;99286.19;;;6.65;78.24
65897;BME280;52677;50.898;10.854;2023-04-19T09:23:45;99280.34;;;6.67;80.79
65897;BME280;52677;50.898;10.854;2023-04-19T09:26:00;99281.91;;;6.76;80.30
65897;BME280;52677;50.898;10.854;2023-04-19T09:28:11;99277.31;;;6.60;77.60
65897;BME280;52677;50.898;10.854;2023-04-19T09:30:12;99273.56;;;6.64;80.96
65897;BME280;52677;50.898;10.854;2023-04-19T09:32:12;99275.19;;;6.65;81.82
65897;BME280;52677;50.898;10.854;2023-04-19T09:34:16;99273.06;;;6.71;81.26
65897;BME280;52677;50.898;10.854;2023-04-19T09:38:27;99271.25;;;6.75;82.64
65897;BME280;52677;50.898;10.854;2023-04-19T09:40:27;99266.69;;;6.79;82.42
65897;BME280;52677;50.898;10.854;2023-04-19T09:42:44;99259.03;;;6.85;81.88
65897;BME280;52677;50.898;10.854;2023-04-19T09:44:58;99260.91;;;6.93;79.80
65897;BME280;52677;50.898;10.854;2023-04-19T09:46:58;99259.66;;;6.90;77.65
65897;BME280;52677;50.898;10.854;2023-04-19T09:49:14;99266.16;;;7.07;79.89
65897;BME280;52677;50.898;10.854;2023-04-19T09:51:15;99257.38;;;7.13;78.70
65897;BME280;52677;50.898;10.854;2023-04-19T09:53:16;99250.94;;;7.09;79.52
65897;BME280;52677;50.898;10.854;2023-04-19T09:55:18;99263.16;;;7.20;80.81
65897;BME280;52677;50.898;10.854;2023-04-19T09:57:18;99255.03;;;7.24;79.17
65897;BME280;52677;50.898;10.854;2023-04-19T09:59:19;99255.63;;;7.29;79.90
65897;BME280;52677;50.898;10.854;2023-04-19T10:01:19;99250.38;;;7.16;79.78
65897;BME280;52677;50.898;10.854;2023-04-19T10:03:23;99251.00;;;7.00;78.15
65897;BME280;52677;50.898;10.854;2023-04-19T10:05:26;99245.56;;;7.13;78.37
65897;BME280;52677;50.898;10.854;2023-04-19T10:07:26;99249.97;;;7.26;76.71
65897;BME280;52677;50.898;10.854;2023-04-19T10:09:27;99249.25;;;7.38;78.88
65897;BME280;52677;50.898;10.854;2023-04-19T10:11:35;99252.00;;;7.38;75.21
65897;BME280;52677;50.898;10.854;2023-04-19T10:13:38;99227.53;;;7.36;75.90
65897;BME280;52677;50.898;10.854;2023-04-19T10:15:40;99230.53;;;7.43;74.48
65897;BME280;52677;50.898;10.854;2023-04-19T10:17:43;99231.50;;;7.47;76.24
65897;BME280;52677;50.898;10.854;2023-04-19T10:19:44;99230.00;;;7.50;76.26
65897;BME280;52677;50.898;10.854;2023-04-19T10:21:46;99222.84;;;7.70;74.59
65897;BME280;52677;50.898;10.854;2023-04-19T10:23:47;99222.97;;;7.85;73.00
65897;BME280;52677;50.898;10.854;2023-04-19T10:25:48;99223.69;;;7.95;74.76
65897;BME280;52677;50.898;10.854;2023-04-19T10:27:48;99212.84;;;7.77;73.89
65897;BME280;52677;50.898;10.854;2023-04-19T10:31:50;99219.06;;;7.74;74.76
65897;BME280;52677;50.898;10.854;2023-04-19T10:33:51;99206.44;;;7.85;75.29
65897;BME280;52677;50.898;10.854;2023-04-19T10:35:54;99191.28;;;7.92;78.46
65897;BME280;52677;50.898;10.854;2023-04-19T10:38:03;99181.56;;;8.06;77.16
65897;BME280;52677;50.898;10.854;2023-04-19T10:40:04;99190.06;;;8.13;77.04